sensor_id;sensor_type;location;lat;lon;timestamp;P1;durP1;ratioP1;P2;durP2;ratioP2
24867;SDS011;12941;48.698;9.310;2023-11-22T00:01:00;12.6;;;7.1;;
24867;SDS011;12941;48.698;9.310;2023-11-22T00:02:05;11.8;;;7.2;;
24867;SDS011;12941;48.698;9.310;2023-11-22T00:03:10;11.8;;;7.2;;
24867;SDS011;12941;48.698;9.310;2023-11-22T00:04:11;11.8;;;7.2;;
24867;SDS011;12941;48.698;9.310;2023-11-22T00:05:15;11.8;;;7.2;;
24867;SDS011;12941;48.698;9.310;2023-11-22T00:06:20;11.8;;;7.2;;
24867;SDS011;12941;48.698;9.310;2023-11-22T00:07:21;12.1;;;7.3;;
24867;SDS011;12941;48.698;9.310;2023-11-22T00:08:21;12.1;;;7.3;;
24867;SDS011;12941;48.698;9.310;2023-11-22T00:09:25;12.1;;;7.3;;
24867;SDS011;12941;48.698;9.310;2023-11-22T00:10:25;12.1;;;7.3;;
24867;SDS011;12941;48.698;9.310;2023-11-22T00:11:31;12.1;;;7.3;;
24867;SDS011;12941;48.698;9.310;2023-11-22T00:12:36;10.4;;;7.3;;
24867;SDS011;12941;48.698;9.310;2023-11-22T00:13:36;10.4;;;7.3;;
24867;SDS011;12941;48.698;9.310;2023-11-22T00:14:41;10.4;;;7.3;;
24867;SDS011;12941;48.698;9.310;2023-11-22T00:15:41;10.4;;;7.3;;
24867;SDS011;12941;48.698;9.310;2023-11-22T00:16:46;11.6;;;7.6;;
24867;SDS011;12941;48.698;9.310;2023-11-22T00:17:51;11.6;;;7.6;;
24867;SDS011;12941;48.698;9.310;2023-11-22T00:18:56;11.6;;;7.6;;
24867;SDS011;12941;48.698;9.310;2023-11-22T00:20:01;11.6;;;7.6;;
24867;SDS011;12941;48.698;9.310;2023-11-22T00:21:01;11.6;;;7.6;;
24867;SDS011;12941;48.698;9.310;2023-11-22T00:22:06;9.3;;;7.2;;
24867;SDS011;12941;48.698;9.310;2023-11-22T00:23:11;9.3;;;7.2;;
24867;SDS011;12941;48.698;9.310;2023-11-22T00:24:11;9.3;;;7.2;;
24867;SDS011;12941;48.698;9.310;2023-11-22T00:25:11;9.3;;;7.2;;
24867;SDS011;12941;48.698;9.310;2023-11-22T00:26:16;9.3;;;7.2;;
24867;SDS011;12941;48.698;9.310;2023-11-22T00:27:21;11.4;;;7.2;;
24867;SDS011;12941;48.698;9.310;2023-11-22T00:28:26;11.4;;;7.2;;
24867;SDS011;12941;48.698;9.310;2023-11-22T00:29:26;11.4;;;7.2;;
24867;SDS011;12941;48.698;9.310;2023-11-22T00:30:26;11.4;;;7.2;;
24867;SDS011;12941;48.698;9.310;2023-11-22T00:31:31;11.4;;;7.2;;
24867;SDS011;12941;48.698;9.310;2023-11-22T00:32:31;11.4;;;7.3;;
24867;SDS011;12941;48.698;9.310;2023-11-22T00:33:36;11.4;;;7.3;;
24867;SDS011;12941;48.698;9.310;2023-11-22T00:34:41;11.4;;;7.3;;
24867;SDS011;12941;48.698;9.310;2023-11-22T00:35:46;11.4;;;7.3;;
24867;SDS011;12941;48.698;9.310;2023-11-22T00:36:51;4.8;;;3.6;;
24867;SDS011;12941;48.698;9.310;2023-11-22T00:37:51;4.8;;;3.6;;
24867;SDS011;12941;48.698;9.310;2023-11-22T00:38:56;4.8;;;3.6;;
24867;SDS011;12941;48.698;9.310;2023-11-22T00:39:56;4.8;;;3.6;;
24867;SDS011;12941;48.698;9.310;2023-11-22T00:40:56;4.8;;;3.6;;
24867;SDS011;12941;48.698;9.310;2023-11-22T00:42:01;2.2;;;2;;
24867;SDS011;12941;48.698;9.310;2023-11-22T00:43:01;2.2;;;2;;
24867;SDS011;12941;48.698;9.310;2023-11-22T00:44:06;2.2;;;2;;
24867;SDS011;12941;48.698;9.310;2023-11-22T00:45:06;2.2;;;2;;
24867;SDS011;12941;48.698;9.310;2023-11-22T00:46:06;2.2;;;2;;
24867;SDS011;12941;48.698;9.310;2023-11-22T00:47:11;2.2;;;2.1;;
24867;SDS011;12941;48.698;9.310;2023-11-22T00:48:16;2.2;;;2.1;;
24867;SDS011;12941;48.698;9.310;2023-11-22T00:49:21;2.2;;;2.1;;
24867;SDS011;12941;48.698;9.310;2023-11-22T00:50:21;2.2;;;2.1;;
24867;SDS011;12941;48.698;9.310;2023-11-22T00:51:26;2.2;;;2.1;;
24867;SDS011;12941;48.698;9.310;2023-11-22T00:52:31;1.8;;;1.7;;
24867;SDS011;12941;48.698;9.310;2023-11-22T00:53:36;1.8;;;1.7;;
24867;SDS011;12941;48.698;9.310;2023-11-22T00:54:41;1.8;;;1.7;;
24867;SDS011;12941;48.698;9.310;2023-11-22T00:55:41;1.8;;;1.7;;
24867;SDS011;12941;48.698;9.310;2023-11-22T00:56:46;1.7;;;1.6;;
24867;SDS011;12941;48.698;9.310;2023-11-22T00:57:51;1.7;;;1.6;;
24867;SDS011;12941;48.698;9.310;2023-11-22T00:58:56;1.7;;;1.6;;
24867;SDS011;12941;48.698;9.310;2023-11-22T01:00:01;1.7;;;1.6;;
24867;SDS011;12941;48.698;9.310;2023-11-22T01:01:01;1.7;;;1.6;;
24867;SDS011;12941;48.698;9.310;2023-11-22T01:02:06;1.5;;;1.4;;
24867;SDS011;12941;48.698;9.310;2023-11-22T01:03:06;1.5;;;1.4;;
24867;SDS011;12941;48.698;9.310;2023-11-22T01:04:11;1.5;;;1.4;;
24867;SDS011;12941;48.698;9.310;2023-11-22T01:05:11;1.5;;;1.4;;
24867;SDS011;12941;48.698;9.310;2023-11-22T01:06:16;1.5;;;1.4;;
24867;SDS011;12941;48.698;9.310;2023-11-22T01:07:21;3.1;;;1.7;;
24867;SDS011;12941;48.698;9.310;2023-11-22T01:08:22;3.1;;;1.7;;
24867;SDS011;12941;48.698;9.310;2023-11-22T01:09:26;3.1;;;1.7;;
24867;SDS011;12941;48.698;9.310;2023-11-22T01:10:26;3.1;;;1.7;;
24867;SDS011;12941;48.698;9.310;2023-11-22T01:11:26;3.1;;;1.7;;
24867;SDS011;12941;48.698;9.310;2023-11-22T01:12:31;1.6;;;1.5;;
24867;SDS011;12941;48.698;9.310;2023-11-22T01:13:31;1.6;;;1.5;;
24867;SDS011;12941;48.698;9.310;2023-11-22T01:14:36;1.6;;;1.5;;
24867;SDS011;12941;48.698;9.310;2023-11-22T01:15:41;1.6;;;1.5;;
24867;SDS011;12941;48.698;9.310;2023-11-22T01:16:41;1.9;;;1.7;;
24867;SDS011;12941;48.698;9.310;2023-11-22T01:17:41;1.9;;;1.7;;
24867;SDS011;12941;48.698;9.310;2023-11-22T01:18:46;1.9;;;1.7;;
24867;SDS011;12941;48.698;9.310;2023-11-22T01:19:51;1.9;;;1.7;;
24867;SDS011;12941;48.698;9.310;2023-11-22T01:20:56;1.9;;;1.7;;
24867;SDS011;12941;48.698;9.310;2023-11-22T01:21:56;2.4;;;2.2;;
24867;SDS011;12941;48.698;9.310;2023-11-22T01:22:56;2.4;;;2.2;;
24867;SDS011;12941;48.698;9.310;2023-11-22T01:24:01;2.4;;;2.2;;
24867;SDS011;12941;48.698;9.310;2023-11-22T01:25:06;2.4;;;2.2;;
24867;SDS011;12941;48.698;9.310;2023-11-22T01:26:06;2.4;;;2.2;;
24867;SDS011;12941;48.698;9.310;2023-11-22T01:27:11;3.2;;;2.2;;
24867;SDS011;12941;48.698;9.310;2023-11-22T01:28:11;3.2;;;2.2;;
24867;SDS011;12941;48.698;9.310;2023-11-22T01:29:16;3.2;;;2.2;;
24867;SDS011;12941;48.698;9.310;2023-11-22T01:30:16;3.2;;;2.2;;
24867;SDS011;12941;48.698;9.310;2023-11-22T01:31:21;3.2;;;2.2;;
24867;SDS011;12941;48.698;9.310;2023-11-22T01:32:21;3.4;;;2.4;;
24867;SDS011;12941;48.698;9.310;2023-11-22T01:33:21;3.4;;;2.4;;
24867;SDS011;12941;48.698;9.310;2023-11-22T01:34:26;3.4;;;2.4;;
24867;SDS011;12941;48.698;9.310;2023-11-22T01:35:31;3.4;;;2.4;;
24867;SDS011;12941;48.698;9.310;2023-11-22T01:36:38;2.4;;;2.2;;
24867;SDS011;12941;48.698;9.310;2023-11-22T01:37:41;2.3;;;2.1;;
24867;SDS011;12941;48.698;9.310;2023-11-22T01:38:41;2.3;;;2.1;;
24867;SDS011;12941;48.698;9.310;2023-11-22T01:39:46;2.3;;;2.1;;
24867;SDS011;12941;48.698;9.310;2023-11-22T01:40:47;2.3;;;2.1;;
24867;SDS011;12941;48.698;9.310;2023-11-22T01:41:51;3.3;;;3;;
24867;SDS011;12941;48.698;9.310;2023-11-22T01:42:56;3.3;;;3;;
24867;SDS011;12941;48.698;9.310;2023-11-22T01:44:01;3.3;;;3;;
24867;SDS011;12941;48.698;9.310;2023-11-22T01:45:06;3.3;;;3;;
24867;SDS011;12941;48.698;9.310;2023-11-22T01:46:06;3.3;;;3;;
24867;SDS011;12941;48.698;9.310;2023-11-22T01:47:06;3.2;;;2.6;;
24867;SDS011;12941;48.698;9.310;2023-11-22T01:48:11;3.2;;;2.6;;
24867;SDS011;12941;48.698;9.310;2023-11-22T01:49:11;3.2;;;2.6;;
24867;SDS011;12941;48.698;9.310;2023-11-22T01:50:16;3.2;;;2.6;;
24867;SDS011;12941;48.698;9.310;2023-11-22T01:51:16;3.2;;;2.6;;
24867;SDS011;12941;48.698;9.310;2023-11-22T01:52:21;2.9;;;2.7;;
24867;SDS011;12941;48.698;9.310;2023-11-22T01:53:21;2.9;;;2.7;;
24867;SDS011;12941;48.698;9.310;2023-11-22T01:54:21;2.9;;;2.7;;
24867;SDS011;12941;48.698;9.310;2023-11-22T01:55:26;2.9;;;2.7;;
24867;SDS011;12941;48.698;9.310;2023-11-22T01:56:31;2.9;;;2.7;;
24867;SDS011;12941;48.698;9.310;2023-11-22T01:57:36;3.4;;;2.8;;
24867;SDS011;12941;48.698;9.310;2023-11-22T01:58:41;3.4;;;2.8;;
24867;SDS011;12941;48.698;9.310;2023-11-22T01:59:41;3.4;;;2.8;;
24867;SDS011;12941;48.698;9.310;2023-11-22T02:00:48;3.4;;;2.8;;
24867;SDS011;12941;48.698;9.310;2023-11-22T02:01:46;2.7;;;2.5;;
24867;SDS011;12941;48.698;9.310;2023-11-22T02:02:52;2.7;;;2.5;;
24867;SDS011;12941;48.698;9.310;2023-11-22T02:03:56;2.7;;;2.5;;
24867;SDS011;12941;48.698;9.310;2023-11-22T02:04:56;2.7;;;2.5;;
24867;SDS011;12941;48.698;9.310;2023-11-22T02:06:01;2.7;;;2.5;;
24867;SDS011;12941;48.698;9.310;2023-11-22T02:07:01;4.3;;;2.7;;
24867;SDS011;12941;48.698;9.310;2023-11-22T02:08:01;4.3;;;2.7;;
24867;SDS011;12941;48.698;9.310;2023-11-22T02:09:06;4.3;;;2.7;;
24867;SDS011;12941;48.698;9.310;2023-11-22T02:10:07;4.3;;;2.7;;
24867;SDS011;12941;48.698;9.310;2023-11-22T02:11:11;4.3;;;2.7;;
24867;SDS011;12941;48.698;9.310;2023-11-22T02:12:16;3.2;;;2.9;;
24867;SDS011;12941;48.698;9.310;2023-11-22T02:13:16;3.2;;;2.9;;
24867;SDS011;12941;48.698;9.310;2023-11-22T02:14:16;3.2;;;2.9;;
24867;SDS011;12941;48.698;9.310;2023-11-22T02:15:21;3.2;;;2.9;;
24867;SDS011;12941;48.698;9.310;2023-11-22T02:16:21;3.2;;;2.9;;
24867;SDS011;12941;48.698;9.310;2023-11-22T02:17:21;3.1;;;2.9;;
24867;SDS011;12941;48.698;9.310;2023-11-22T02:18:21;3.1;;;2.9;;
24867;SDS011;12941;48.698;9.310;2023-11-22T02:19:26;3.1;;;2.9;;
24867;SDS011;12941;48.698;9.310;2023-11-22T02:20:26;3.1;;;2.9;;
24867;SDS011;12941;48.698;9.310;2023-11-22T02:21:31;3.1;;;2.9;;
24867;SDS011;12941;48.698;9.310;2023-11-22T02:22:42;3;;;2.8;;
24867;SDS011;12941;48.698;9.310;2023-11-22T02:23:42;3;;;2.8;;
24867;SDS011;12941;48.698;9.310;2023-11-22T02:24:42;3;;;2.8;;
24867;SDS011;12941;48.698;9.310;2023-11-22T02:25:46;3;;;2.8;;
24867;SDS011;12941;48.698;9.310;2023-11-22T02:26:51;2.9;;;2.7;;
24867;SDS011;12941;48.698;9.310;2023-11-22T02:27:51;2.9;;;2.7;;
24867;SDS011;12941;48.698;9.310;2023-11-22T02:28:56;2.9;;;2.7;;
24867;SDS011;12941;48.698;9.310;2023-11-22T02:29:57;2.9;;;2.7;;
24867;SDS011;12941;48.698;9.310;2023-11-22T02:31:01;2.9;;;2.7;;
24867;SDS011;12941;48.698;9.310;2023-11-22T02:32:07;3.1;;;2.8;;
24867;SDS011;12941;48.698;9.310;2023-11-22T02:33:11;3.1;;;2.8;;
24867;SDS011;12941;48.698;9.310;2023-11-22T02:34:12;3.1;;;2.8;;
24867;SDS011;12941;48.698;9.310;2023-11-22T02:35:12;3.1;;;2.8;;
24867;SDS011;12941;48.698;9.310;2023-11-22T02:36:16;3.1;;;2.8;;
24867;SDS011;12941;48.698;9.310;2023-11-22T02:37:16;3.2;;;2.9;;
24867;SDS011;12941;48.698;9.310;2023-11-22T02:38:16;3.2;;;2.9;;
24867;SDS011;12941;48.698;9.310;2023-11-22T02:39:22;3.2;;;2.9;;
24867;SDS011;12941;48.698;9.310;2023-11-22T02:40:26;3.2;;;2.9;;
24867;SDS011;12941;48.698;9.310;2023-11-22T02:41:27;3.2;;;2.9;;
24867;SDS011;12941;48.698;9.310;2023-11-22T02:42:27;2.7;;;2.5;;
24867;SDS011;12941;48.698;9.310;2023-11-22T02:43:31;2.7;;;2.5;;
24867;SDS011;12941;48.698;9.310;2023-11-22T02:44:31;2.7;;;2.5;;
24867;SDS011;12941;48.698;9.310;2023-11-22T02:45:37;2.7;;;2.5;;
24867;SDS011;12941;48.698;9.310;2023-11-22T02:46:40;3;;;2.7;;
24867;SDS011;12941;48.698;9.310;2023-11-22T02:47:41;3;;;2.7;;
24867;SDS011;12941;48.698;9.310;2023-11-22T02:48:47;3;;;2.7;;
24867;SDS011;12941;48.698;9.310;2023-11-22T02:49:52;3;;;2.7;;
24867;SDS011;12941;48.698;9.310;2023-11-22T02:50:57;3;;;2.7;;
24867;SDS011;12941;48.698;9.310;2023-11-22T02:51:57;3.5;;;2.7;;
24867;SDS011;12941;48.698;9.310;2023-11-22T02:53:02;3.5;;;2.7;;
24867;SDS011;12941;48.698;9.310;2023-11-22T02:54:06;3.5;;;2.7;;
24867;SDS011;12941;48.698;9.310;2023-11-22T02:55:07;3.5;;;2.7;;
24867;SDS011;12941;48.698;9.310;2023-11-22T02:56:07;3.5;;;2.7;;
24867;SDS011;12941;48.698;9.310;2023-11-22T02:57:12;3.2;;;2.9;;
24867;SDS011;12941;48.698;9.310;2023-11-22T02:58:12;3.2;;;2.9;;
24867;SDS011;12941;48.698;9.310;2023-11-22T02:59:12;3.2;;;2.9;;
24867;SDS011;12941;48.698;9.310;2023-11-22T03:00:17;3.2;;;2.9;;
24867;SDS011;12941;48.698;9.310;2023-11-22T03:01:17;3.2;;;2.9;;
24867;SDS011;12941;48.698;9.310;2023-11-22T03:02:22;3.1;;;2.8;;
24867;SDS011;12941;48.698;9.310;2023-11-22T03:03:27;3.1;;;2.8;;
24867;SDS011;12941;48.698;9.310;2023-11-22T03:04:32;3.1;;;2.8;;
24867;SDS011;12941;48.698;9.310;2023-11-22T03:05:32;3.1;;;2.8;;
24867;SDS011;12941;48.698;9.310;2023-11-22T03:06:37;3.3;;;3;;
24867;SDS011;12941;48.698;9.310;2023-11-22T03:07:43;3.3;;;3;;
24867;SDS011;12941;48.698;9.310;2023-11-22T03:08:47;3.3;;;3;;
24867;SDS011;12941;48.698;9.310;2023-11-22T03:09:52;3.3;;;3;;
24867;SDS011;12941;48.698;9.310;2023-11-22T03:11:12;3.3;;;3;;
24867;SDS011;12941;48.698;9.310;2023-11-22T03:11:57;3.4;;;3.1;;
24867;SDS011;12941;48.698;9.310;2023-11-22T03:13:02;3.4;;;3.1;;
24867;SDS011;12941;48.698;9.310;2023-11-22T03:14:07;3.4;;;3.1;;
24867;SDS011;12941;48.698;9.310;2023-11-22T03:15:12;3.4;;;3.1;;
24867;SDS011;12941;48.698;9.310;2023-11-22T03:16:13;3.4;;;3.1;;
24867;SDS011;12941;48.698;9.310;2023-11-22T03:17:17;3.7;;;3.4;;
24867;SDS011;12941;48.698;9.310;2023-11-22T03:18:22;3.7;;;3.4;;
24867;SDS011;12941;48.698;9.310;2023-11-22T03:19:22;3.7;;;3.4;;
24867;SDS011;12941;48.698;9.310;2023-11-22T03:20:27;3.7;;;3.4;;
24867;SDS011;12941;48.698;9.310;2023-11-22T03:21:32;3.7;;;3.4;;
24867;SDS011;12941;48.698;9.310;2023-11-22T03:22:37;4.7;;;3.3;;
24867;SDS011;12941;48.698;9.310;2023-11-22T03:23:42;4.7;;;3.3;;
24867;SDS011;12941;48.698;9.310;2023-11-22T03:24:42;4.7;;;3.3;;
24867;SDS011;12941;48.698;9.310;2023-11-22T03:25:47;4.7;;;3.3;;
24867;SDS011;12941;48.698;9.310;2023-11-22T03:26:52;3.7;;;3.4;;
24867;SDS011;12941;48.698;9.310;2023-11-22T03:27:57;3.7;;;3.4;;
24867;SDS011;12941;48.698;9.310;2023-11-22T03:28:57;3.7;;;3.4;;
24867;SDS011;12941;48.698;9.310;2023-11-22T03:30:02;3.7;;;3.4;;
24867;SDS011;12941;48.698;9.310;2023-11-22T03:31:07;3.7;;;3.4;;
24867;SDS011;12941;48.698;9.310;2023-11-22T03:32:12;3.2;;;2.9;;
24867;SDS011;12941;48.698;9.310;2023-11-22T03:33:12;3.2;;;2.9;;
24867;SDS011;12941;48.698;9.310;2023-11-22T03:34:12;3.2;;;2.9;;
24867;SDS011;12941;48.698;9.310;2023-11-22T03:35:12;3.2;;;2.9;;
24867;SDS011;12941;48.698;9.310;2023-11-22T03:36:17;3.2;;;2.9;;
24867;SDS011;12941;48.698;9.310;2023-11-22T03:37:17;3.2;;;2.9;;
24867;SDS011;12941;48.698;9.310;2023-11-22T03:38:22;3.2;;;2.9;;
24867;SDS011;12941;48.698;9.310;2023-11-22T03:39:22;3.2;;;2.9;;
24867;SDS011;12941;48.698;9.310;2023-11-22T03:40:27;3.2;;;2.9;;
24867;SDS011;12941;48.698;9.310;2023-11-22T03:41:27;3.2;;;2.9;;
24867;SDS011;12941;48.698;9.310;2023-11-22T03:42:32;4;;;3.1;;
24867;SDS011;12941;48.698;9.310;2023-11-22T03:43:32;4;;;3.1;;
24867;SDS011;12941;48.698;9.310;2023-11-22T03:44:37;4;;;3.1;;
24867;SDS011;12941;48.698;9.310;2023-11-22T03:45:37;4;;;3.1;;
24867;SDS011;12941;48.698;9.310;2023-11-22T03:46:37;3.2;;;2.9;;
24867;SDS011;12941;48.698;9.310;2023-11-22T03:47:42;3.2;;;2.9;;
24867;SDS011;12941;48.698;9.310;2023-11-22T03:48:42;3.2;;;2.9;;
24867;SDS011;12941;48.698;9.310;2023-11-22T03:49:47;3.2;;;2.9;;
24867;SDS011;12941;48.698;9.310;2023-11-22T03:50:47;3.2;;;2.9;;
24867;SDS011;12941;48.698;9.310;2023-11-22T03:51:47;3.2;;;2.9;;
24867;SDS011;12941;48.698;9.310;2023-11-22T03:52:52;3.2;;;2.9;;
24867;SDS011;12941;48.698;9.310;2023-11-22T03:53:57;3.2;;;2.9;;
24867;SDS011;12941;48.698;9.310;2023-11-22T03:54:57;3.2;;;2.9;;
24867;SDS011;12941;48.698;9.310;2023-11-22T03:56:02;3.2;;;2.9;;
24867;SDS011;12941;48.698;9.310;2023-11-22T03:57:07;3.5;;;3;;
24867;SDS011;12941;48.698;9.310;2023-11-22T03:58:12;3.5;;;3;;
24867;SDS011;12941;48.698;9.310;2023-11-22T03:59:12;3.5;;;3;;
24867;SDS011;12941;48.698;9.310;2023-11-22T04:00:18;3.5;;;3;;
24867;SDS011;12941;48.698;9.310;2023-11-22T04:01:17;3.5;;;3;;
24867;SDS011;12941;48.698;9.310;2023-11-22T04:02:17;3.3;;;2.8;;
24867;SDS011;12941;48.698;9.310;2023-11-22T04:03:22;3.3;;;2.8;;
24867;SDS011;12941;48.698;9.310;2023-11-22T04:04:27;3.3;;;2.8;;
24867;SDS011;12941;48.698;9.310;2023-11-22T04:05:27;3.3;;;2.8;;
24867;SDS011;12941;48.698;9.310;2023-11-22T04:06:32;3.3;;;2.8;;
24867;SDS011;12941;48.698;9.310;2023-11-22T04:07:32;3.3;;;2.9;;
24867;SDS011;12941;48.698;9.310;2023-11-22T04:08:37;3.3;;;2.9;;
24867;SDS011;12941;48.698;9.310;2023-11-22T04:09:37;3.3;;;2.9;;
24867;SDS011;12941;48.698;9.310;2023-11-22T04:10:37;3.3;;;2.9;;
24867;SDS011;12941;48.698;9.310;2023-11-22T04:11:40;3.7;;;3;;
24867;SDS011;12941;48.698;9.310;2023-11-22T04:12:42;3.7;;;3;;
24867;SDS011;12941;48.698;9.310;2023-11-22T04:13:42;3.7;;;3;;
24867;SDS011;12941;48.698;9.310;2023-11-22T04:14:42;3.7;;;3;;
24867;SDS011;12941;48.698;9.310;2023-11-22T04:15:47;3.7;;;3;;
24867;SDS011;12941;48.698;9.310;2023-11-22T04:16:52;3.2;;;2.9;;
24867;SDS011;12941;48.698;9.310;2023-11-22T04:17:52;3.2;;;2.9;;
24867;SDS011;12941;48.698;9.310;2023-11-22T04:18:52;3.2;;;2.9;;
24867;SDS011;12941;48.698;9.310;2023-11-22T04:19:57;3.2;;;2.9;;
24867;SDS011;12941;48.698;9.310;2023-11-22T04:20:57;3.2;;;2.9;;
24867;SDS011;12941;48.698;9.310;2023-11-22T04:22:02;3.2;;;2.9;;
24867;SDS011;12941;48.698;9.310;2023-11-22T04:23:07;3.2;;;2.9;;
24867;SDS011;12941;48.698;9.310;2023-11-22T04:24:12;3.2;;;2.9;;
24867;SDS011;12941;48.698;9.310;2023-11-22T04:25:17;3.2;;;2.9;;
24867;SDS011;12941;48.698;9.310;2023-11-22T04:26:17;3.2;;;2.9;;
24867;SDS011;12941;48.698;9.310;2023-11-22T04:27:22;3.7;;;3.2;;
24867;SDS011;12941;48.698;9.310;2023-11-22T04:28:22;3.7;;;3.2;;
24867;SDS011;12941;48.698;9.310;2023-11-22T04:29:22;3.7;;;3.2;;
24867;SDS011;12941;48.698;9.310;2023-11-22T04:30:27;3.7;;;3.2;;
24867;SDS011;12941;48.698;9.310;2023-11-22T04:31:32;3.7;;;3.2;;
24867;SDS011;12941;48.698;9.310;2023-11-22T04:32:37;3.2;;;2.9;;
24867;SDS011;12941;48.698;9.310;2023-11-22T04:33:37;3.2;;;2.9;;
24867;SDS011;12941;48.698;9.310;2023-11-22T04:34:42;3.2;;;2.9;;
24867;SDS011;12941;48.698;9.310;2023-11-22T04:35:42;3.2;;;2.9;;
24867;SDS011;12941;48.698;9.310;2023-11-22T04:36:47;4.6;;;3.2;;
24867;SDS011;12941;48.698;9.310;2023-11-22T04:37:52;4.6;;;3.2;;
24867;SDS011;12941;48.698;9.310;2023-11-22T04:38:57;4.6;;;3.2;;
24867;SDS011;12941;48.698;9.310;2023-11-22T04:40:03;4.6;;;3.2;;
24867;SDS011;12941;48.698;9.310;2023-11-22T04:41:08;4.6;;;3.2;;
24867;SDS011;12941;48.698;9.310;2023-11-22T04:42:08;3.5;;;3.1;;
24867;SDS011;12941;48.698;9.310;2023-11-22T04:43:12;3.5;;;3.1;;
24867;SDS011;12941;48.698;9.310;2023-11-22T04:44:12;3.5;;;3.1;;
24867;SDS011;12941;48.698;9.310;2023-11-22T04:45:12;3.5;;;3.1;;
24867;SDS011;12941;48.698;9.310;2023-11-22T04:46:17;3.5;;;3.1;;
24867;SDS011;12941;48.698;9.310;2023-11-22T04:47:22;3.8;;;2.8;;
24867;SDS011;12941;48.698;9.310;2023-11-22T04:48:22;3.8;;;2.8;;
24867;SDS011;12941;48.698;9.310;2023-11-22T04:49:27;3.8;;;2.8;;
24867;SDS011;12941;48.698;9.310;2023-11-22T04:50:27;3.8;;;2.8;;
24867;SDS011;12941;48.698;9.310;2023-11-22T04:51:32;3.8;;;2.8;;
24867;SDS011;12941;48.698;9.310;2023-11-22T04:52:37;3.3;;;3;;
24867;SDS011;12941;48.698;9.310;2023-11-22T04:53:37;3.3;;;3;;
24867;SDS011;12941;48.698;9.310;2023-11-22T04:54:42;3.3;;;3;;
24867;SDS011;12941;48.698;9.310;2023-11-22T04:55:48;3.3;;;3;;
24867;SDS011;12941;48.698;9.310;2023-11-22T04:56:48;3.6;;;3.3;;
24867;SDS011;12941;48.698;9.310;2023-11-22T04:57:48;3.6;;;3.3;;
24867;SDS011;12941;48.698;9.310;2023-11-22T04:58:52;3.6;;;3.3;;
24867;SDS011;12941;48.698;9.310;2023-11-22T04:59:52;3.6;;;3.3;;
24867;SDS011;12941;48.698;9.310;2023-11-22T05:00:52;3.6;;;3.3;;
24867;SDS011;12941;48.698;9.310;2023-11-22T05:01:58;3.5;;;3.2;;
24867;SDS011;12941;48.698;9.310;2023-11-22T05:03:02;3.5;;;3.2;;
24867;SDS011;12941;48.698;9.310;2023-11-22T05:04:03;3.5;;;3.2;;
24867;SDS011;12941;48.698;9.310;2023-11-22T05:05:03;3.5;;;3.2;;
24867;SDS011;12941;48.698;9.310;2023-11-22T05:06:08;3.5;;;3.2;;
24867;SDS011;12941;48.698;9.310;2023-11-22T05:07:13;4.6;;;3.2;;
24867;SDS011;12941;48.698;9.310;2023-11-22T05:08:18;4.6;;;3.2;;
24867;SDS011;12941;48.698;9.310;2023-11-22T05:09:18;4.6;;;3.2;;
24867;SDS011;12941;48.698;9.310;2023-11-22T05:10:18;4.6;;;3.2;;
24867;SDS011;12941;48.698;9.310;2023-11-22T05:11:23;4.6;;;3.2;;
24867;SDS011;12941;48.698;9.310;2023-11-22T05:12:23;3.4;;;3.1;;
24867;SDS011;12941;48.698;9.310;2023-11-22T05:13:28;3.4;;;3.1;;
24867;SDS011;12941;48.698;9.310;2023-11-22T05:14:33;3.4;;;3.1;;
24867;SDS011;12941;48.698;9.310;2023-11-22T05:15:33;3.4;;;3.1;;
24867;SDS011;12941;48.698;9.310;2023-11-22T05:16:38;3.2;;;2.9;;
24867;SDS011;12941;48.698;9.310;2023-11-22T05:17:38;3.2;;;2.9;;
24867;SDS011;12941;48.698;9.310;2023-11-22T05:18:38;3.2;;;2.9;;
24867;SDS011;12941;48.698;9.310;2023-11-22T05:19:38;3.2;;;2.9;;
24867;SDS011;12941;48.698;9.310;2023-11-22T05:20:38;3.2;;;2.9;;
24867;SDS011;12941;48.698;9.310;2023-11-22T05:21:38;3.3;;;3;;
24867;SDS011;12941;48.698;9.310;2023-11-22T05:22:43;3.3;;;3;;
24867;SDS011;12941;48.698;9.310;2023-11-22T05:23:43;3.3;;;3;;
24867;SDS011;12941;48.698;9.310;2023-11-22T05:24:43;3.3;;;3;;
24867;SDS011;12941;48.698;9.310;2023-11-22T05:25:48;3.3;;;3;;
24867;SDS011;12941;48.698;9.310;2023-11-22T05:26:53;3.3;;;3;;
24867;SDS011;12941;48.698;9.310;2023-11-22T05:27:58;3.3;;;3;;
24867;SDS011;12941;48.698;9.310;2023-11-22T05:29:03;3.3;;;3;;
24867;SDS011;12941;48.698;9.310;2023-11-22T05:30:03;3.3;;;3;;
24867;SDS011;12941;48.698;9.310;2023-11-22T05:31:08;3.3;;;3;;
24867;SDS011;12941;48.698;9.310;2023-11-22T05:32:08;3.3;;;2.9;;
24867;SDS011;12941;48.698;9.310;2023-11-22T05:33:13;3.3;;;2.9;;
24867;SDS011;12941;48.698;9.310;2023-11-22T05:34:13;3.3;;;2.9;;
24867;SDS011;12941;48.698;9.310;2023-11-22T05:35:18;3.3;;;2.9;;
24867;SDS011;12941;48.698;9.310;2023-11-22T05:36:23;3.3;;;2.9;;
24867;SDS011;12941;48.698;9.310;2023-11-22T05:37:28;3.7;;;3.1;;
24867;SDS011;12941;48.698;9.310;2023-11-22T05:38:33;3.7;;;3.1;;
24867;SDS011;12941;48.698;9.310;2023-11-22T05:39:38;3.7;;;3.1;;
24867;SDS011;12941;48.698;9.310;2023-11-22T05:40:38;3.7;;;3.1;;
24867;SDS011;12941;48.698;9.310;2023-11-22T05:41:38;3.2;;;2.9;;
24867;SDS011;12941;48.698;9.310;2023-11-22T05:42:43;3.2;;;2.9;;
24867;SDS011;12941;48.698;9.310;2023-11-22T05:43:43;3.2;;;2.9;;
24867;SDS011;12941;48.698;9.310;2023-11-22T05:44:48;3.2;;;2.9;;
24867;SDS011;12941;48.698;9.310;2023-11-22T05:45:53;3.2;;;2.9;;
24867;SDS011;12941;48.698;9.310;2023-11-22T05:46:53;3.6;;;2.9;;
24867;SDS011;12941;48.698;9.310;2023-11-22T05:47:53;3.6;;;2.9;;
24867;SDS011;12941;48.698;9.310;2023-11-22T05:48:53;3.6;;;2.9;;
24867;SDS011;12941;48.698;9.310;2023-11-22T05:49:58;3.6;;;2.9;;
24867;SDS011;12941;48.698;9.310;2023-11-22T05:50:58;3.6;;;2.9;;
24867;SDS011;12941;48.698;9.310;2023-11-22T05:52:03;3.1;;;2.7;;
24867;SDS011;12941;48.698;9.310;2023-11-22T05:53:08;3.1;;;2.7;;
24867;SDS011;12941;48.698;9.310;2023-11-22T05:54:08;3.1;;;2.7;;
24867;SDS011;12941;48.698;9.310;2023-11-22T05:55:08;3.1;;;2.7;;
24867;SDS011;12941;48.698;9.310;2023-11-22T05:56:13;3.1;;;2.7;;
24867;SDS011;12941;48.698;9.310;2023-11-22T05:57:13;3.3;;;3;;
24867;SDS011;12941;48.698;9.310;2023-11-22T05:58:13;3.3;;;3;;
24867;SDS011;12941;48.698;9.310;2023-11-22T05:59:18;3.3;;;3;;
24867;SDS011;12941;48.698;9.310;2023-11-22T06:00:18;3.3;;;3;;
24867;SDS011;12941;48.698;9.310;2023-11-22T06:01:23;3.3;;;3;;
24867;SDS011;12941;48.698;9.310;2023-11-22T06:02:28;3.9;;;3;;
24867;SDS011;12941;48.698;9.310;2023-11-22T06:03:33;3.9;;;3;;
24867;SDS011;12941;48.698;9.310;2023-11-22T06:04:38;3.9;;;3;;
24867;SDS011;12941;48.698;9.310;2023-11-22T06:05:38;3.9;;;3;;
24867;SDS011;12941;48.698;9.310;2023-11-22T06:06:38;4.2;;;3;;
24867;SDS011;12941;48.698;9.310;2023-11-22T06:07:43;4.3;;;3;;
24867;SDS011;12941;48.698;9.310;2023-11-22T06:08:48;4.3;;;3;;
24867;SDS011;12941;48.698;9.310;2023-11-22T06:09:48;4.3;;;3;;
24867;SDS011;12941;48.698;9.310;2023-11-22T06:10:53;4.3;;;3;;
24867;SDS011;12941;48.698;9.310;2023-11-22T06:11:53;3.6;;;3.1;;
24867;SDS011;12941;48.698;9.310;2023-11-22T06:12:58;3.6;;;3.1;;
24867;SDS011;12941;48.698;9.310;2023-11-22T06:14:03;3.6;;;3.1;;
24867;SDS011;12941;48.698;9.310;2023-11-22T06:15:09;3.6;;;3.1;;
24867;SDS011;12941;48.698;9.310;2023-11-22T06:16:08;3.6;;;3.1;;
24867;SDS011;12941;48.698;9.310;2023-11-22T06:17:13;3.9;;;2.9;;
24867;SDS011;12941;48.698;9.310;2023-11-22T06:18:18;3.9;;;2.9;;
24867;SDS011;12941;48.698;9.310;2023-11-22T06:19:23;3.9;;;2.9;;
24867;SDS011;12941;48.698;9.310;2023-11-22T06:20:23;3.9;;;2.9;;
24867;SDS011;12941;48.698;9.310;2023-11-22T06:21:28;3.9;;;2.9;;
24867;SDS011;12941;48.698;9.310;2023-11-22T06:22:28;4.5;;;3.3;;
24867;SDS011;12941;48.698;9.310;2023-11-22T06:23:28;4.5;;;3.3;;
24867;SDS011;12941;48.698;9.310;2023-11-22T06:24:33;4.5;;;3.3;;
24867;SDS011;12941;48.698;9.310;2023-11-22T06:25:33;4.5;;;3.3;;
24867;SDS011;12941;48.698;9.310;2023-11-22T06:26:33;4.5;;;3.3;;
24867;SDS011;12941;48.698;9.310;2023-11-22T06:27:33;4.2;;;3.2;;
24867;SDS011;12941;48.698;9.310;2023-11-22T06:28:38;4.2;;;3.2;;
24867;SDS011;12941;48.698;9.310;2023-11-22T06:29:43;4.2;;;3.2;;
24867;SDS011;12941;48.698;9.310;2023-11-22T06:30:48;4.2;;;3.2;;
24867;SDS011;12941;48.698;9.310;2023-11-22T06:31:48;3.7;;;3.1;;
24867;SDS011;12941;48.698;9.310;2023-11-22T06:32:48;3.7;;;3.1;;